x

Santa Monica Basin - 33nm Wsw Of Santa Monica, Ca (46025) Wave Buoy

3:50pm - Tue 22nd Jul 2014 All times are PDT. -7 hours from GMT.

  • Sig Wave height 2.6ft
  • Swell Direction
  • Peak Period 4s
  • Average Period 4s
  • Wind
    9mph
  • Sea Temp 71°f
  • Air Temp 71°f
  • Sea Pressure 1016.6mb
  • Santa Monica Basin - 33nm Wsw Of Santa Monica, Ca
  • Santa Monica Basin - 33nm Wsw Of Santa Monica, Ca

More Historic Weather Station data

Upgrade to MSW Pro to gain access to the past 30 days of data for over 8000 Wavebouys and Weather Stations around the globe.

Join Pro

Comparision Forecast

View Surf forecast
   
Tue 07/22 3:50pm 2.5ft 4s 4s 9
mph
1016.6mb 71f 71f
2:50pm 2.5ft 5s 4s 9 11 mph 1017.3mb 71f 70f
1:50pm 2.5ft 4s 4s 9
mph
1017.5mb 71f 69f
12:50pm 2.5ft 5s 4s 4 7 mph 1018mb 71f 68f
11:50am 2.5ft 4s 4s 9
mph
1017.9mb 70f 68f
10:50am 2.5ft 5s 4s 9 11 mph 1018mb 70f 68f
9:50am 2.5ft 12s 5s 7 9 mph 1017.7mb 70f 68f
8:50am 2.5ft 5s 4s 11 13 mph 1017.4mb 70f 67f
7:50am 2.5ft 5s 5s 9 11 mph 1017.1mb 70f 67f
6:50am 2.5ft 5s 4s 11 13 mph 1016.6mb 70f 67f
5:50am 2.5ft 5s 4s 4 7 mph 1016.4mb 70f 67f
4:50am 2.5ft 5s 4s 7 9 mph 1016.3mb 70f 67f
3:50am 2.5ft 4s 4s 7
mph
1016.5mb 70f 68f
2:50am 3ft 5s 4s 7 11 mph 1016.5mb 70f 68f
1:50am 3ft 4s 4s 13 16 mph 1016.2mb 70f 67f
12:50am 3ft 4s 4s 18 20 mph 1016.1mb 70f 67f
Mon 07/21 11:50pm 3ft 4s 4s 16 18 mph 1016.1mb 70f 68f
10:50pm 3ft 4s 4s 9 11 mph 1016.1mb 70f 68f
9:50pm 3ft 12s 4s 13 16 mph 1015.7mb 70f 69f
8:50pm 3ft 4s 4s 18 20 mph 1015mb 70f 68f
6:50pm 2.5ft 4s 4s 16 20 mph 1015.5mb 70f 69f
5:50pm 2.5ft 12s 4s 18 20 mph 1015.8mb 71f 69f
4:50pm 1.6ft 12s 4s 16 18 mph 1016.3mb 71f 69f
2:50pm 1.6ft 13s 5s 13 16 mph 1017.4mb 71f 69f
1:50pm 1.6ft 13s 6s 11 13 mph 1017.6mb 71f 68f
12:50pm 1.6ft 13s 6s 11 13 mph 1017.7mb 71f 68f
11:50am 1.3ft 12s 6s 7 9 mph 1018.3mb 71f 68f
10:50am 1.6ft 13s 6s 7 9 mph 1018.1mb 70f 67f
9:50am 1.6ft 12s 6s 7 9 mph 1017.9mb 70f 67f
8:50am 1.6ft 14s 6s 9
mph
1017.7mb 70f 68f
7:50am 1.6ft 12s 6s 9
mph
1017.2mb 70f 68f
6:50am 1.6ft 12s 5s 2 4 mph 1016.4mb 70f 68f
4:50am 2ft 13s 5s 7 9 mph 1015.6mb 70f 67f
3:50am 2ft 14s 4s 11 13 mph 1015.5mb 70f 67f
2:50am 2.5ft 14s 5s 7 11 mph 1015.6mb 70f 68f
1:50am 2.5ft 13s 4s 9 11 mph 1015.5mb 70f 68f
12:50am 2.5ft 4s 4s 9 11 mph 1015.7mb 70f 68f
Sun 07/20 11:50pm 2.5ft 13s 4s 11 13 mph 1015.7mb 70f 68f
10:50pm 2.5ft 4s 4s 13 16 mph 1015.6mb 70f 68f
9:50pm 2.5ft 14s 4s 13 18 mph 1015.4mb 70f 68f
8:50pm 2.5ft 14s 4s 13 18 mph 1014.9mb 70f 68f
7:50pm 2ft 13s 4s 16
mph
1014.5mb 71f 68f
6:50pm 2ft 13s 4s 13 18 mph 1014.2mb 71f 69f
5:50pm 1.6ft 13s 4s 13 16 mph 1014.2mb 71f 69f
4:50pm 1.6ft 13s 5s 13 16 mph 1014.4mb 71f 68f
3:50pm 1.6ft 14s 6s 11 13 mph 1015mb 71f 69f
2:50pm 1.6ft 14s 7s 11
mph
1015.7mb 71f 68f
1:50pm 1.6ft 14s 7s 9 11 mph 1016.3mb 70f 68f
12:50pm 1.6ft 14s 6s 7
mph
1016.6mb 70f 68f
11:50am 1.6ft 14s 6s 4 7 mph 1016.5mb 70f 68f
10:50am 2ft 14s 7s 4
mph
1016.4mb 70f 68f
9:50am 2ft 14s 7s 4 7 mph 1016mb 69f 68f
8:50am 1.6ft 14s 7s 7
mph
1016mb 69f 68f
7:50am 2ft 14s 7s 7 9 mph 1015.6mb 69f 68f
6:50am 2ft 14s 6s 7 9 mph 1015mb 69f 67f
5:50am 1.6ft 13s 6s 4 7 mph 1014.4mb 69f 67f
4:50am 2.5ft 14s 6s 4
mph
1013.9mb 69f 67f
3:50am 2ft 13s 5s 4 7 mph 1013.8mb 69f 67f
2:50am 2ft 14s 5s 7 9 mph 1013.8mb 69f 67f
1:50am 2.5ft 14s 5s 7 9 mph 1014.1mb 69f 67f
12:50am 2.5ft 14s 5s 7 9 mph 1014.5mb 70f 68f
Sat 07/19 11:50pm 2.5ft 14s 5s 9 11 mph 1014.6mb 70f 67f
10:50pm 2.5ft 14s 5s 9 11 mph 1014.6mb 70f 67f
9:50pm 2.5ft 13s 4s 11 13 mph 1014.3mb 71f 68f
8:50pm 2.5ft 13s 5s 11 13 mph 1014mb 71f 68f
7:50pm 2.5ft 15s 4s 11 13 mph 1013.3mb 71f 68f
6:50pm 2.5ft 14s 5s 13
mph
1013.1mb 71f 68f
5:50pm 2ft 14s 5s 11 13 mph 1013.3mb 71f 68f
4:50pm 2ft 15s 6s 9 11 mph 1013.6mb 71f 68f
3:50pm 2.5ft 14s 6s 9 11 mph 1014mb 71f 68f
2:50pm 2ft 14s 6s 9 11 mph 1014.3mb 71f 68f
1:50pm 2ft 14s 6s 7 11 mph 1014.8mb 71f 67f
12:50pm 2ft 14s 6s 7 9 mph 1014.9mb 71f 67f
11:50am 2ft 14s 5s 4 7 mph 1015.3mb 71f 67f
10:50am 2.5ft 14s 6s 2 4 mph 1015.1mb 71f 68f
9:50am 2ft 14s 5s 4 7 mph 1014.9mb 71f 67f
8:50am 2.5ft 14s 6s 2 4 mph 1015mb 70f 67f
7:50am 2.5ft 15s 6s 4 7 mph 1014.7mb 70f 67f
6:50am 2ft 15s 6s 4 7 mph 1014.1mb 70f 67f
5:50am 2ft 14s 6s 7 9 mph 1013.5mb 71f 66f
4:50am 2.5ft 14s 6s 9 11 mph 1013.1mb 71f 67f
3:50am 2.5ft 14s 6s 4 7 mph 1013mb 71f 67f
2:50am 2.5ft 15s 5s 7
mph
1013.2mb 71f 67f
1:50am 2.5ft 14s 5s 7
mph
1013.5mb 71f 67f
12:50am 2.5ft 14s 5s 4 7 mph 1013.9mb 71f 67f